createdAt,value
2022-12-22T00:01:03.861Z,92
2022-12-22T00:03:03.590Z,92
2022-12-22T00:07:04.033Z,92
2022-12-22T00:09:06.124Z,93
2022-12-22T00:13:04.854Z,93
2022-12-22T00:15:03.399Z,93
2022-12-22T00:17:06.116Z,93
2022-12-22T00:19:02.912Z,93
2022-12-22T00:21:00.689Z,92
2022-12-22T00:23:05.870Z,92
2022-12-22T00:25:01.734Z,92
2022-12-22T00:27:02.781Z,92
2022-12-22T00:31:05.394Z,92
2022-12-22T00:33:04.290Z,92
2022-12-22T00:35:05.602Z,92
2022-12-22T00:37:05.144Z,92
2022-12-22T00:39:03.107Z,92
2022-12-22T00:41:06.061Z,92
2022-12-22T00:43:01.633Z,92
2022-12-22T00:45:03.191Z,92
2022-12-22T00:47:06.221Z,92
2022-12-22T00:49:06.269Z,92
2022-12-22T00:51:03.116Z,92
2022-12-22T00:53:06.146Z,92
2022-12-22T00:55:03.393Z,92
2022-12-22T00:57:06.228Z,92
2022-12-22T00:59:05.698Z,92
2022-12-22T01:01:03.099Z,92
2022-12-22T01:03:06.515Z,92
2022-12-22T01:07:03.390Z,92
2022-12-22T01:09:04.835Z,92
2022-12-22T01:13:04.886Z,92
2022-12-22T01:15:04.517Z,92
2022-12-22T01:19:05.605Z,92
2022-12-22T01:21:03.190Z,92
2022-12-22T01:25:05.428Z,91
2022-12-22T01:27:03.932Z,91
2022-12-22T01:31:09.328Z,91
2022-12-22T01:33:05.171Z,91
2022-12-22T01:35:05.896Z,91
2022-12-22T01:37:05.312Z,91
2022-12-22T01:39:02.815Z,91
2022-12-22T01:43:06.575Z,91
2022-12-22T01:45:06.286Z,90
2022-12-22T01:47:06.064Z,91
2022-12-22T01:49:03.915Z,91
2022-12-22T01:51:03.557Z,91
2022-12-22T01:53:05.361Z,91
2022-12-22T01:55:06.501Z,91
2022-12-22T01:57:01.851Z,91
2022-12-22T01:59:06.423Z,91
2022-12-22T02:01:02.757Z,91
2022-12-22T02:03:03.241Z,91
2022-12-22T02:05:06.053Z,91
2022-12-22T02:07:04.506Z,91
2022-12-22T02:09:03.107Z,91
2022-12-22T02:13:03.650Z,91
2022-12-22T02:15:03.301Z,91
2022-12-22T02:19:06.353Z,91
2022-12-22T02:21:06.057Z,91
2022-12-22T02:25:03.726Z,91
2022-12-22T02:27:05.402Z,91
2022-12-22T02:29:05.359Z,91
2022-12-22T02:31:04.422Z,91
2022-12-22T02:33:09.757Z,91
2022-12-22T02:35:06.276Z,91
2022-12-22T02:37:05.708Z,91
2022-12-22T02:39:03.340Z,91
2022-12-22T02:41:06.256Z,91
2022-12-22T02:43:05.619Z,91
2022-12-22T02:45:04.074Z,91
2022-12-22T02:47:05.762Z,91
2022-12-22T02:49:02.046Z,91
2022-12-22T02:51:06.388Z,91
2022-12-22T02:53:06.115Z,91
2022-12-22T02:55:06.416Z,91
2022-12-22T02:57:03.365Z,91
2022-12-22T02:59:06.033Z,91
2022-12-22T03:01:05.672Z,91
2022-12-22T03:03:03.228Z,91
2022-12-22T03:07:03.299Z,91
2022-12-22T03:09:03.398Z,91
2022-12-22T03:11:05.261Z,91
2022-12-22T03:13:06.133Z,91
2022-12-22T03:15:03.878Z,91
2022-12-22T03:19:05.103Z,91
2022-12-22T03:21:03.073Z,91
2022-12-22T03:23:06.464Z,91
2022-12-22T03:25:00.622Z,91
2022-12-22T03:27:06.648Z,91
2022-12-22T03:29:05.942Z,91
2022-12-22T03:31:04.527Z,91
2022-12-22T03:33:04.846Z,91
2022-12-22T03:35:05.555Z,91
2022-12-22T03:37:06.264Z,91
2022-12-22T03:39:03.078Z,91
2022-12-22T03:43:03.083Z,91
2022-12-22T03:45:00.619Z,91
2022-12-22T03:47:06.050Z,91
2022-12-22T03:49:05.834Z,91
2022-12-22T03:51:03.213Z,91
2022-12-22T03:53:06.025Z,91
2022-12-22T03:55:03.512Z,91
2022-12-22T03:57:05.648Z,91
2022-12-22T04:01:01.828Z,91
2022-12-22T04:03:02.813Z,91
2022-12-22T04:05:06.315Z,91
2022-12-22T04:07:04.748Z,91
2022-12-22T04:09:06.214Z,91
2022-12-22T04:11:06.836Z,91
2022-12-22T04:13:06.623Z,91
2022-12-22T04:15:06.165Z,91
2022-12-22T04:17:06.171Z,91
2022-12-22T04:19:03.197Z,91
2022-12-22T04:21:06.732Z,91
2022-12-22T04:23:05.692Z,91
2022-12-22T04:25:03.413Z,91
2022-12-22T04:27:06.104Z,91
2022-12-22T04:29:05.970Z,91
2022-12-22T04:31:04.130Z,91
2022-12-22T04:33:04.345Z,91
2022-12-22T04:37:12.940Z,91
2022-12-22T04:39:04.008Z,91
2022-12-22T04:41:05.434Z,91
2022-12-22T04:43:09.608Z,91
2022-12-22T04:45:06.064Z,91
2022-12-22T04:49:04.311Z,91
2022-12-22T04:51:04.170Z,91
2022-12-22T04:53:05.646Z,91
2022-12-22T04:55:03.469Z,91
2022-12-22T04:57:03.060Z,91
2022-12-22T04:59:06.349Z,91
2022-12-22T05:01:03.342Z,91
2022-12-22T05:03:05.578Z,91
2022-12-22T05:05:06.092Z,91
2022-12-22T05:07:01.369Z,91
2022-12-22T05:09:04.398Z,91
2022-12-22T05:11:05.874Z,91
2022-12-22T05:13:02.994Z,90
2022-12-22T05:15:03.026Z,90
2022-12-22T05:17:05.965Z,91
2022-12-22T05:19:06.106Z,91
2022-12-22T05:21:03.221Z,91
2022-12-22T05:23:05.988Z,91
2022-12-22T05:27:03.084Z,91
2022-12-22T05:29:06.173Z,91
2022-12-22T05:31:03.242Z,91
2022-12-22T05:33:05.322Z,91
2022-12-22T05:35:06.021Z,91
2022-12-22T05:37:05.410Z,91
2022-12-22T05:39:02.105Z,90
2022-12-22T05:41:05.885Z,90
2022-12-22T05:43:03.343Z,90
2022-12-22T05:45:04.645Z,90
2022-12-22T05:49:05.936Z,90
2022-12-22T05:51:04.895Z,90
2022-12-22T05:55:03.457Z,90
2022-12-22T05:57:05.390Z,90
2022-12-22T05:59:06.248Z,90
2022-12-22T06:01:06.158Z,89
2022-12-22T06:03:03.675Z,89
2022-12-22T06:07:02.147Z,90
2022-12-22T06:09:05.733Z,89
2022-12-22T06:13:03.095Z,89
2022-12-22T06:15:04.689Z,89
2022-12-22T06:19:03.263Z,89
2022-12-22T06:21:03.426Z,89
2022-12-22T06:23:05.856Z,89
2022-12-22T06:25:04.610Z,88
2022-12-22T06:27:00.816Z,88
2022-12-22T06:29:06.610Z,88
2022-12-22T06:31:01.787Z,88
2022-12-22T06:33:04.026Z,88
2022-12-22T06:35:06.145Z,88
2022-12-22T06:37:02.235Z,88
2022-12-22T06:39:04.664Z,88
2022-12-22T06:41:06.252Z,88
2022-12-22T06:43:08.873Z,88
2022-12-22T06:45:04.397Z,88
2022-12-22T06:49:04.609Z,88
2022-12-22T06:51:05.791Z,88
2022-12-22T06:55:04.465Z,87
2022-12-22T06:57:04.350Z,87
2022-12-22T07:01:03.190Z,87
2022-12-22T07:03:04.897Z,87
2022-12-22T07:05:05.932Z,87
2022-12-22T07:09:58.468Z,87
2022-12-22T07:12:02.686Z,87
2022-12-22T07:13:55.198Z,87
2022-12-22T07:16:00.435Z,87
2022-12-22T07:17:56.975Z,88
2022-12-22T07:19:58.412Z,87
2022-12-22T07:21:55.579Z,87
2022-12-22T07:24:01.357Z,87
2022-12-22T07:25:59.802Z,87
2022-12-22T07:28:00.530Z,87
2022-12-22T07:30:02.406Z,87
2022-12-22T07:31:58.373Z,87
2022-12-22T07:33:58.325Z,86
2022-12-22T07:35:58.809Z,86
2022-12-22T07:38:03.518Z,86
2022-12-22T07:40:03.341Z,86
2022-12-22T07:42:01.546Z,86
2022-12-22T07:44:03.373Z,85
2022-12-22T07:46:01.294Z,86
2022-12-22T07:47:55.160Z,86
2022-12-22T07:50:03.066Z,86
2022-12-22T07:51:58.433Z,86
2022-12-22T07:54:02.987Z,86
2022-12-22T07:56:00.939Z,86
2022-12-22T07:57:58.377Z,86
2022-12-22T07:59:58.570Z,86
2022-12-22T08:01:58.709Z,85
2022-12-22T08:03:57.932Z,85
2022-12-22T08:06:01.506Z,85
2022-12-22T08:08:01.358Z,85
2022-12-22T08:09:58.497Z,85
2022-12-22T08:12:04.836Z,85
2022-12-22T08:14:02.383Z,85
2022-12-22T08:16:03.029Z,85
2022-12-22T08:18:01.813Z,85
2022-12-22T08:20:01.939Z,85
2022-12-22T08:21:58.430Z,85
2022-12-22T08:23:55.637Z,85
2022-12-22T08:27:58.489Z,85
2022-12-22T08:29:58.011Z,85
2022-12-22T08:32:02.168Z,85
2022-12-22T08:33:58.534Z,85
2022-12-22T08:36:02.783Z,85
2022-12-22T08:37:58.618Z,85
2022-12-22T08:40:03.405Z,85
2022-12-22T08:42:02.568Z,84
2022-12-22T08:44:02.170Z,84
2022-12-22T08:46:01.707Z,84
2022-12-22T08:47:57.167Z,85
2022-12-22T08:49:58.623Z,85
2022-12-22T08:52:00.153Z,85
2022-12-22T08:54:05.263Z,85
2022-12-22T08:56:01.793Z,85
2022-12-22T08:58:01.746Z,85
2022-12-22T09:00:04.314Z,85
2022-12-22T09:02:01.771Z,85
2022-12-22T09:03:58.415Z,84
2022-12-22T09:05:58.516Z,84
2022-12-22T09:07:58.876Z,84
2022-12-22T09:09:58.655Z,84
2022-12-22T09:11:58.203Z,84
2022-12-22T09:14:03.396Z,84
2022-12-22T09:15:59.651Z,84
2022-12-22T09:17:55.235Z,84
2022-12-22T09:20:00.036Z,84
2022-12-22T09:21:58.043Z,84
2022-12-22T09:23:57.175Z,84
2022-12-22T09:26:05.086Z,84
2022-12-22T09:28:00.429Z,84
2022-12-22T09:29:55.240Z,84
2022-12-22T09:32:03.458Z,84
2022-12-22T09:33:58.425Z,84
2022-12-22T09:36:03.961Z,84
2022-12-22T09:38:01.538Z,85
2022-12-22T09:39:58.504Z,85
2022-12-22T09:42:02.668Z,85
2022-12-22T09:44:04.717Z,84
2022-12-22T09:45:58.609Z,85
2022-12-22T09:48:01.381Z,84
2022-12-22T09:49:58.537Z,84
2022-12-22T09:51:58.182Z,84
2022-12-22T09:54:01.509Z,84
2022-12-22T09:56:00.329Z,84
2022-12-22T09:58:02.725Z,84
2022-12-22T10:00:02.995Z,84
2022-12-22T10:02:01.480Z,84
2022-12-22T10:04:01.036Z,84
2022-12-22T10:06:02.639Z,84
2022-12-22T10:08:03.023Z,84
2022-12-22T10:10:03.056Z,84
2022-12-22T10:14:01.355Z,84
2022-12-22T10:16:02.516Z,84
2022-12-22T10:18:00.728Z,85
2022-12-22T10:19:59.174Z,85
2022-12-22T10:22:02.844Z,84
2022-12-22T10:24:01.767Z,84
2022-12-22T10:26:29.465Z,84
2022-12-22T10:27:55.654Z,84
2022-12-22T10:30:01.851Z,84
2022-12-22T10:32:01.032Z,84
2022-12-22T10:33:58.651Z,85
2022-12-22T10:35:58.344Z,84
2022-12-22T10:37:55.637Z,84
2022-12-22T10:39:59.175Z,85
2022-12-22T10:41:55.653Z,85
2022-12-22T10:44:03.414Z,85
2022-12-22T10:48:03.148Z,85
2022-12-22T10:52:02.080Z,85
2022-12-22T10:54:03.842Z,85
2022-12-22T10:55:58.528Z,85
2022-12-22T10:58:05.221Z,85
2022-12-22T11:00:03.240Z,85
2022-12-22T11:02:01.757Z,85
2022-12-22T11:03:58.472Z,86
2022-12-22T11:06:01.685Z,86
2022-12-22T11:07:58.316Z,86
2022-12-22T11:10:00.539Z,86
2022-12-22T11:11:59.216Z,87
2022-12-22T11:13:58.525Z,87
2022-12-22T11:15:58.473Z,87
2022-12-22T11:17:55.326Z,87
2022-12-22T11:19:58.465Z,87
2022-12-22T11:21:58.584Z,87
2022-12-22T11:24:02.660Z,87
2022-12-22T11:25:58.518Z,87
2022-12-22T11:27:57.276Z,87
2022-12-22T11:30:00.926Z,87
2022-12-22T11:32:01.633Z,88
2022-12-22T11:34:03.349Z,87
2022-12-22T11:35:58.096Z,87
2022-12-22T11:37:58.510Z,88
2022-12-22T11:40:01.904Z,88
2022-12-22T11:42:00.161Z,88
2022-12-22T11:43:59.539Z,88
2022-12-22T11:45:59.393Z,88
2022-12-22T11:48:00.956Z,88
2022-12-22T11:49:59.096Z,88
2022-12-22T11:52:04.987Z,88
2022-12-22T11:53:58.550Z,88
2022-12-22T11:55:58.505Z,88
2022-12-22T11:58:02.103Z,88
2022-12-22T12:00:04.581Z,88
2022-12-22T12:02:02.416Z,87
2022-12-22T12:04:02.376Z,87
2022-12-22T12:06:00.341Z,87
2022-12-22T12:09:58.423Z,87
2022-12-22T12:12:01.633Z,87
2022-12-22T12:13:58.530Z,87
2022-12-22T12:15:59.144Z,87
2022-12-22T12:18:01.598Z,87
2022-12-22T12:20:03.647Z,87
2022-12-22T12:22:02.988Z,87
2022-12-22T12:23:57.039Z,87
2022-12-22T12:25:58.432Z,87
2022-12-22T12:28:01.821Z,87
2022-12-22T12:30:36.081Z,87
2022-12-22T12:32:03.351Z,87
2022-12-22T12:33:55.279Z,87
2022-12-22T12:35:59.193Z,86
2022-12-22T12:38:03.686Z,86
2022-12-22T12:40:01.013Z,86
2022-12-22T12:41:58.510Z,86
2022-12-22T12:43:57.366Z,86
2022-12-22T12:46:04.233Z,86
2022-12-22T12:47:58.499Z,86
2022-12-22T12:50:01.557Z,86
2022-12-22T12:54:03.649Z,86
2022-12-22T12:56:01.781Z,86
2022-12-22T12:58:04.663Z,86
2022-12-22T13:00:04.255Z,86
2022-12-22T13:04:03.439Z,86
2022-12-22T13:05:58.402Z,86
2022-12-22T13:08:03.500Z,86
2022-12-22T13:10:01.895Z,86
2022-12-22T13:12:12.036Z,85
2022-12-22T13:14:04.477Z,85
2022-12-22T13:15:58.481Z,85
2022-12-22T13:18:00.126Z,85
2022-12-22T13:20:02.147Z,85
2022-12-22T13:22:02.223Z,85
2022-12-22T13:24:23.303Z,85
2022-12-22T13:25:58.422Z,84
2022-12-22T13:28:00.500Z,84
2022-12-22T13:29:58.427Z,84
2022-12-22T13:32:01.783Z,84
2022-12-22T13:34:02.963Z,84
2022-12-22T13:36:01.726Z,84
2022-12-22T13:38:01.710Z,84
2022-12-22T13:39:59.824Z,83
2022-12-22T13:42:03.790Z,83
2022-12-22T13:44:04.043Z,83
2022-12-22T13:45:58.628Z,83
2022-12-22T13:47:58.648Z,83
2022-12-22T13:50:09.535Z,83
2022-12-22T13:54:10.812Z,83
2022-12-22T13:55:58.003Z,83
2022-12-22T13:58:02.347Z,84
2022-12-22T13:59:57.392Z,84
2022-12-22T14:01:58.605Z,84
2022-12-22T14:04:03.674Z,84
2022-12-22T14:06:04.907Z,84
2022-12-22T14:07:58.444Z,84
2022-12-22T14:09:56.583Z,84
2022-12-22T14:12:02.653Z,84
2022-12-22T14:14:02.612Z,84
2022-12-22T14:16:03.288Z,84
2022-12-22T14:17:55.826Z,84
2022-12-22T14:20:00.195Z,84
2022-12-22T14:21:58.444Z,84
2022-12-22T14:23:57.275Z,84
2022-12-22T14:26:03.096Z,84
2022-12-22T14:28:01.734Z,84
2022-12-22T14:30:01.984Z,84
2022-12-22T14:32:01.843Z,84
2022-12-22T14:34:01.408Z,84
2022-12-22T14:35:58.836Z,84
2022-12-22T14:37:58.681Z,84
2022-12-22T14:39:56.621Z,84
2022-12-22T14:42:01.480Z,83
2022-12-22T14:43:58.385Z,83
2022-12-22T14:46:00.714Z,83
2022-12-22T14:47:59.013Z,83
2022-12-22T14:50:02.881Z,82
2022-12-22T14:52:01.191Z,82
2022-12-22T14:54:02.858Z,82
2022-12-22T14:55:58.787Z,82
2022-12-22T14:58:00.537Z,82
2022-12-22T15:00:05.165Z,82
2022-12-22T15:01:58.804Z,82
2022-12-22T15:03:58.446Z,82
2022-12-22T15:06:04.353Z,82
2022-12-22T15:08:07.071Z,82
2022-12-22T15:10:15.930Z,82
2022-12-22T15:12:01.484Z,82
2022-12-22T15:14:01.906Z,82
2022-12-22T15:15:58.648Z,82
2022-12-22T15:17:58.990Z,82
2022-12-22T15:20:03.027Z,82
2022-12-22T15:21:58.435Z,82
2022-12-22T15:24:03.411Z,82
2022-12-22T15:25:59.854Z,81
2022-12-22T15:28:02.126Z,82
2022-12-22T15:30:01.586Z,82
2022-12-22T15:33:58.658Z,81
2022-12-22T15:36:00.955Z,81
2022-12-22T15:38:00.258Z,82
2022-12-22T15:40:03.253Z,82
2022-12-22T15:41:55.388Z,82
2022-12-22T15:44:00.174Z,82
2022-12-22T15:45:59.242Z,82
2022-12-22T15:48:01.973Z,81
2022-12-22T15:49:59.035Z,81
2022-12-22T15:53:59.478Z,82
2022-12-22T15:56:00.866Z,82
2022-12-22T15:58:03.601Z,82
2022-12-22T16:00:01.054Z,82
2022-12-22T16:02:03.822Z,81
2022-12-22T16:03:58.624Z,81
2022-12-22T16:06:00.963Z,81
2022-12-22T16:07:59.063Z,81
2022-12-22T16:10:00.048Z,81
2022-12-22T16:12:02.745Z,81
2022-12-22T16:14:05.117Z,81
2022-12-22T16:15:58.658Z,81
2022-12-22T16:18:00.770Z,81
2022-12-22T16:20:03.686Z,81
2022-12-22T16:22:01.755Z,81
2022-12-22T16:23:57.587Z,81
2022-12-22T16:26:04.098Z,82
2022-12-22T16:28:01.909Z,81
2022-12-22T16:30:01.920Z,81
2022-12-22T16:32:03.439Z,81
2022-12-22T16:34:01.327Z,81
2022-12-22T16:36:00.930Z,81
2022-12-22T16:38:00.529Z,81
2022-12-22T16:39:59.066Z,81
2022-12-22T16:42:02.122Z,81
2022-12-22T16:45:08.062Z,81
2022-12-22T16:45:58.569Z,81
2022-12-22T16:48:02.175Z,81
2022-12-22T16:50:03.583Z,81
2022-12-22T16:51:58.542Z,81
2022-12-22T16:54:02.808Z,81
2022-12-22T16:55:58.849Z,81
2022-12-22T16:58:01.359Z,81
2022-12-22T16:59:57.732Z,81
2022-12-22T17:01:59.535Z,81
2022-12-22T17:04:03.606Z,81
2022-12-22T17:06:03.018Z,81
2022-12-22T17:07:58.781Z,81
2022-12-22T17:10:01.825Z,81
2022-12-22T17:11:58.998Z,81
2022-12-22T17:14:01.962Z,81
2022-12-22T17:16:01.487Z,81
2022-12-22T17:18:02.815Z,81
2022-12-22T17:19:59.192Z,82
2022-12-22T17:21:57.165Z,81
2022-12-22T17:24:01.894Z,81
2022-12-22T17:26:02.374Z,81
2022-12-22T17:28:02.112Z,81
2022-12-22T17:30:00.537Z,81
2022-12-22T17:31:58.698Z,81
2022-12-22T17:34:04.577Z,81
2022-12-22T17:36:02.687Z,81
2022-12-22T17:38:03.143Z,81
2022-12-22T17:40:02.495Z,82
2022-12-22T17:41:58.587Z,81
2022-12-22T17:43:58.556Z,82
2022-12-22T17:46:02.482Z,82
2022-12-22T17:48:04.126Z,82
2022-12-22T17:49:58.811Z,82
2022-12-22T17:52:01.341Z,82
2022-12-22T17:54:01.048Z,82
2022-12-22T17:56:08.047Z,82
2022-12-22T17:57:58.900Z,82
2022-12-22T18:00:04.832Z,82
2022-12-22T18:01:58.613Z,82
2022-12-22T18:04:01.064Z,82
2022-12-22T18:06:03.345Z,82
2022-12-22T18:07:58.316Z,82
2022-12-22T18:10:04.520Z,82
2022-12-22T18:11:58.699Z,82
2022-12-22T18:14:01.171Z,82
2022-12-22T18:16:01.614Z,82
2022-12-22T18:18:03.819Z,82
2022-12-22T18:19:59.814Z,82
2022-12-22T18:22:01.961Z,82
2022-12-22T18:23:58.600Z,82
2022-12-22T18:25:58.417Z,82
2022-12-22T18:27:58.128Z,82
2022-12-22T18:29:58.784Z,82
2022-12-22T18:32:01.919Z,83
2022-12-22T18:33:58.532Z,83
2022-12-22T18:35:58.832Z,83
2022-12-22T18:38:00.436Z,83
2022-12-22T18:39:58.706Z,83
2022-12-22T18:41:59.271Z,84
2022-12-22T18:44:03.742Z,84
2022-12-22T18:46:00.886Z,84
2022-12-22T18:48:01.800Z,84
2022-12-22T18:50:04.883Z,84
2022-12-22T18:52:03.846Z,84
2022-12-22T18:54:01.684Z,84
2022-12-22T18:56:01.924Z,84
2022-12-22T18:58:02.050Z,83
2022-12-22T18:59:58.069Z,84
2022-12-22T19:02:00.631Z,84
2022-12-22T19:03:59.185Z,84
2022-12-22T19:06:01.711Z,84
2022-12-22T19:08:01.836Z,84
2022-12-22T19:09:58.807Z,84
2022-12-22T19:12:00.789Z,84
2022-12-22T19:14:00.976Z,85
2022-12-22T19:16:03.711Z,84
2022-12-22T19:18:01.910Z,85
2022-12-22T19:20:03.237Z,84
2022-12-22T19:22:01.765Z,84
2022-12-22T19:24:02.813Z,84
2022-12-22T19:28:03.445Z,85
2022-12-22T19:31:59.639Z,85
2022-12-22T19:34:02.240Z,85
2022-12-22T19:36:03.387Z,84
2022-12-22T19:38:02.860Z,85
2022-12-22T19:40:01.894Z,85
2022-12-22T19:41:58.698Z,85
2022-12-22T19:44:03.504Z,85
2022-12-22T19:46:04.540Z,85
2022-12-22T19:47:59.406Z,85
2022-12-22T19:49:58.541Z,85
2022-12-22T19:52:00.352Z,85
2022-12-22T19:53:55.655Z,85
2022-12-22T19:55:58.796Z,84
2022-12-22T19:57:58.883Z,84
2022-12-22T20:00:04.565Z,84
2022-12-22T20:02:02.830Z,84
2022-12-22T20:04:02.019Z,84
2022-12-22T20:06:01.813Z,84
2022-12-22T20:07:58.857Z,84
2022-12-22T20:10:01.824Z,84
2022-12-22T20:11:58.740Z,84
2022-12-22T20:14:00.267Z,84
2022-12-22T20:15:58.870Z,84
2022-12-22T20:17:58.913Z,84
2022-12-22T20:20:04.608Z,84
2022-12-22T20:22:02.835Z,84
2022-12-22T20:24:01.929Z,84
2022-12-22T20:26:00.118Z,84
2022-12-22T20:27:55.913Z,84
2022-12-22T20:30:04.044Z,84
2022-12-22T20:31:59.189Z,84
2022-12-22T20:33:58.564Z,84
2022-12-22T20:35:59.833Z,84
2022-12-22T20:37:58.837Z,84
2022-12-22T20:43:58.196Z,84
2022-12-22T20:46:01.336Z,84
2022-12-22T20:48:04.146Z,84
2022-12-22T20:50:00.978Z,84
2022-12-22T20:51:58.500Z,84
2022-12-22T20:54:01.770Z,84
2022-12-22T20:56:00.941Z,84
2022-12-22T20:57:58.562Z,84
2022-12-22T20:59:59.552Z,84
2022-12-22T21:01:58.629Z,84
2022-12-22T21:04:02.422Z,84
2022-12-22T21:05:58.466Z,84
2022-12-22T21:07:59.206Z,84
2022-12-22T21:10:03.738Z,84
2022-12-22T21:11:58.857Z,84
2022-12-22T21:13:59.242Z,84
2022-12-22T21:16:02.110Z,84
2022-12-22T21:18:02.792Z,84
2022-12-22T21:20:01.957Z,84
2022-12-22T21:21:58.586Z,84
2022-12-22T21:26:01.677Z,84
2022-12-22T21:28:01.823Z,84
2022-12-22T21:29:57.996Z,84
2022-12-22T21:32:03.428Z,84
2022-12-22T21:33:58.525Z,84
2022-12-22T21:35:58.445Z,85
2022-12-22T21:37:58.228Z,85
2022-12-22T21:40:00.887Z,86
2022-12-22T21:42:02.807Z,86
2022-12-22T21:43:58.612Z,87
2022-12-22T21:46:02.053Z,87
2022-12-22T21:47:59.902Z,87
2022-12-22T21:50:01.626Z,87
2022-12-22T21:51:58.485Z,87
2022-12-22T21:54:01.922Z,87
2022-12-22T21:56:01.355Z,88
2022-12-22T21:58:02.237Z,88
2022-12-22T21:59:58.494Z,88
2022-12-22T22:01:58.907Z,88
2022-12-22T22:03:56.025Z,88
2022-12-22T22:06:00.234Z,88
2022-12-22T22:07:57.852Z,89
2022-12-22T22:09:58.522Z,88
2022-12-22T22:11:57.782Z,88
2022-12-22T22:14:02.711Z,89
2022-12-22T22:15:59.494Z,88
2022-12-22T22:18:07.113Z,89
2022-12-22T22:19:58.700Z,89
2022-12-22T22:22:00.911Z,89
2022-12-22T22:23:58.646Z,89
2022-12-22T22:25:57.414Z,89
2022-12-22T22:27:59.762Z,89
2022-12-22T22:29:58.867Z,89
2022-12-22T22:32:02.095Z,89
2022-12-22T22:34:02.409Z,89
2022-12-22T22:36:03.983Z,89
2022-12-22T22:38:01.072Z,89
2022-12-22T22:40:01.281Z,89
2022-12-22T22:42:01.743Z,89
2022-12-22T22:43:58.554Z,89
2022-12-22T22:45:58.044Z,89
2022-12-22T22:48:01.943Z,89
2022-12-22T22:49:59.554Z,89
2022-12-22T22:51:59.099Z,89
2022-12-22T22:54:02.325Z,89
2022-12-22T22:56:04.939Z,89
2022-12-22T22:57:58.787Z,90
2022-12-22T22:59:58.593Z,90
2022-12-22T23:02:04.029Z,90
2022-12-22T23:03:58.538Z,90
2022-12-22T23:05:59.011Z,89
2022-12-22T23:08:05.352Z,90
2022-12-22T23:10:04.809Z,90
2022-12-22T23:12:04.681Z,90
2022-12-22T23:13:58.096Z,90
2022-12-22T23:15:55.780Z,90
2022-12-22T23:18:00.747Z,90
2022-12-22T23:20:01.201Z,90
2022-12-22T23:22:04.473Z,90
2022-12-22T23:24:01.668Z,90
2022-12-22T23:26:01.716Z,90
2022-12-22T23:27:59.753Z,90
2022-12-22T23:29:59.306Z,90
2022-12-22T23:31:58.298Z,90
2022-12-22T23:33:57.464Z,90
2022-12-22T23:36:00.109Z,90
2022-12-22T23:38:01.809Z,90
2022-12-22T23:40:25.522Z,90
2022-12-22T23:42:00.464Z,90
2022-12-22T23:44:03.510Z,90
2022-12-22T23:46:00.354Z,90
2022-12-22T23:47:58.900Z,90
2022-12-22T23:50:01.982Z,90
2022-12-22T23:51:58.879Z,90
2022-12-22T23:53:57.452Z,90
2022-12-22T23:56:02.402Z,90
2022-12-22T23:58:00.809Z,90
2022-12-22T23:59:58.644Z,90
